Terminal Aerodrome Forecast
Issued by NWS

Home | Current Version | Previous Version | Text Only | Print | Product List | Glossary On
Versions: 1 2 3 4 5 6 7 8 9 10 11 12 13 14 15
000
FTUS42 KFFC 242322
TAFRYY
TAF
KRYY 242322Z 2500/2524 00000KT P6SM SCT250
     FM251500 11004KT P6SM FEW040
     FM251800 12006KT P6SM SCT050
      AMD NOT SKED 2504/2512=

USA.gov is the U.S. government's official web portal to all federal, state and local government web resources and services.